sensor_id;sensor_type;location;lat;lon;timestamp;P1;durP1;ratioP1;P2;durP2;ratioP2
12425;SDS011;6277;49.824;9.562;2023-06-10T00:00:54;3.67;;;3.22;;
12425;SDS011;6277;49.824;9.562;2023-06-10T00:03:20;4.32;;;3.33;;
12425;SDS011;6277;49.824;9.562;2023-06-10T00:05:48;3.70;;;3.40;;
12425;SDS011;6277;49.824;9.562;2023-06-10T00:08:14;4.32;;;3.80;;
12425;SDS011;6277;49.824;9.562;2023-06-10T00:10:44;5.65;;;4.05;;
12425;SDS011;6277;49.824;9.562;2023-06-10T00:13:10;4.40;;;3.58;;
12425;SDS011;6277;49.824;9.562;2023-06-10T00:15:37;4.55;;;3.95;;
12425;SDS011;6277;49.824;9.562;2023-06-10T00:18:03;3.95;;;3.55;;
12425;SDS011;6277;49.824;9.562;2023-06-10T00:20:29;5.57;;;3.40;;
12425;SDS011;6277;49.824;9.562;2023-06-10T00:22:55;4.05;;;3.60;;
12425;SDS011;6277;49.824;9.562;2023-06-10T00:25:22;4.43;;;3.50;;
12425;SDS011;6277;49.824;9.562;2023-06-10T00:27:47;3.88;;;3.35;;
12425;SDS011;6277;49.824;9.562;2023-06-10T00:30:13;3.75;;;3.42;;
12425;SDS011;6277;49.824;9.562;2023-06-10T00:32:39;4.18;;;3.25;;
12425;SDS011;6277;49.824;9.562;2023-06-10T00:35:04;4.07;;;3.20;;
12425;SDS011;6277;49.824;9.562;2023-06-10T00:37:31;3.95;;;3.55;;
12425;SDS011;6277;49.824;9.562;2023-06-10T00:39:57;3.67;;;3.17;;
12425;SDS011;6277;49.824;9.562;2023-06-10T00:42:23;3.53;;;3.08;;
12425;SDS011;6277;49.824;9.562;2023-06-10T00:44:50;3.92;;;3.42;;
12425;SDS011;6277;49.824;9.562;2023-06-10T00:47:16;3.78;;;3.25;;
12425;SDS011;6277;49.824;9.562;2023-06-10T00:49:41;3.80;;;3.50;;
12425;SDS011;6277;49.824;9.562;2023-06-10T00:52:07;4.13;;;3.50;;
12425;SDS011;6277;49.824;9.562;2023-06-10T00:54:33;3.90;;;3.50;;
12425;SDS011;6277;49.824;9.562;2023-06-10T00:57:00;3.42;;;3.13;;
12425;SDS011;6277;49.824;9.562;2023-06-10T00:59:26;3.22;;;2.92;;
12425;SDS011;6277;49.824;9.562;2023-06-10T01:01:53;4.43;;;3.55;;
12425;SDS011;6277;49.824;9.562;2023-06-10T01:04:20;3.92;;;3.30;;
12425;SDS011;6277;49.824;9.562;2023-06-10T01:06:54;4.10;;;3.50;;
12425;SDS011;6277;49.824;9.562;2023-06-10T01:09:45;3.97;;;3.63;;
12425;SDS011;6277;49.824;9.562;2023-06-10T01:12:30;3.88;;;3.38;;
12425;SDS011;6277;49.824;9.562;2023-06-10T01:15:17;3.22;;;2.92;;
12425;SDS011;6277;49.824;9.562;2023-06-10T01:17:55;3.30;;;3.00;;
12425;SDS011;6277;49.824;9.562;2023-06-10T01:20:26;3.92;;;3.15;;
12425;SDS011;6277;49.824;9.562;2023-06-10T01:22:57;4.40;;;3.60;;
12425;SDS011;6277;49.824;9.562;2023-06-10T01:25:24;4.78;;;3.75;;
12425;SDS011;6277;49.824;9.562;2023-06-10T01:28:00;4.80;;;3.88;;
12425;SDS011;6277;49.824;9.562;2023-06-10T01:30:30;3.55;;;3.25;;
12425;SDS011;6277;49.824;9.562;2023-06-10T01:33:02;5.05;;;4.00;;
12425;SDS011;6277;49.824;9.562;2023-06-10T01:35:31;6.35;;;4.00;;
12425;SDS011;6277;49.824;9.562;2023-06-10T01:37:58;4.75;;;3.60;;
12425;SDS011;6277;49.824;9.562;2023-06-10T01:40:26;4.03;;;3.63;;
12425;SDS011;6277;49.824;9.562;2023-06-10T01:42:52;4.10;;;3.65;;
12425;SDS011;6277;49.824;9.562;2023-06-10T01:45:17;4.72;;;3.92;;
12425;SDS011;6277;49.824;9.562;2023-06-10T01:47:43;4.00;;;3.60;;
12425;SDS011;6277;49.824;9.562;2023-06-10T01:50:08;3.75;;;3.45;;
12425;SDS011;6277;49.824;9.562;2023-06-10T01:52:34;3.83;;;3.50;;
12425;SDS011;6277;49.824;9.562;2023-06-10T01:55:00;5.18;;;4.28;;
12425;SDS011;6277;49.824;9.562;2023-06-10T01:57:25;4.65;;;4.15;;
12425;SDS011;6277;49.824;9.562;2023-06-10T01:59:51;4.05;;;3.67;;
12425;SDS011;6277;49.824;9.562;2023-06-10T02:02:16;4.40;;;3.63;;
12425;SDS011;6277;49.824;9.562;2023-06-10T02:04:42;4.45;;;4.05;;
12425;SDS011;6277;49.824;9.562;2023-06-10T02:07:07;4.43;;;3.85;;
12425;SDS011;6277;49.824;9.562;2023-06-10T02:09:33;4.50;;;3.90;;
12425;SDS011;6277;49.824;9.562;2023-06-10T02:12:00;4.88;;;4.00;;
12425;SDS011;6277;49.824;9.562;2023-06-10T02:14:27;4.70;;;4.30;;
12425;SDS011;6277;49.824;9.562;2023-06-10T02:16:53;4.78;;;4.38;;
12425;SDS011;6277;49.824;9.562;2023-06-10T02:19:21;4.70;;;4.20;;
12425;SDS011;6277;49.824;9.562;2023-06-10T02:21:48;4.97;;;4.57;;
12425;SDS011;6277;49.824;9.562;2023-06-10T02:24:14;4.78;;;4.38;;
12425;SDS011;6277;49.824;9.562;2023-06-10T02:26:39;4.75;;;4.20;;
12425;SDS011;6277;49.824;9.562;2023-06-10T02:29:05;4.40;;;4.00;;
12425;SDS011;6277;49.824;9.562;2023-06-10T02:31:31;5.10;;;4.18;;
12425;SDS011;6277;49.824;9.562;2023-06-10T02:34:00;5.70;;;4.47;;
12425;SDS011;6277;49.824;9.562;2023-06-10T02:36:26;4.78;;;4.28;;
12425;SDS011;6277;49.824;9.562;2023-06-10T02:38:53;4.43;;;4.03;;
12425;SDS011;6277;49.824;9.562;2023-06-10T02:41:18;4.60;;;4.20;;
12425;SDS011;6277;49.824;9.562;2023-06-10T02:43:44;4.60;;;4.20;;
12425;SDS011;6277;49.824;9.562;2023-06-10T02:46:09;4.60;;;4.18;;
12425;SDS011;6277;49.824;9.562;2023-06-10T02:48:42;4.90;;;4.28;;
12425;SDS011;6277;49.824;9.562;2023-06-10T02:51:09;5.28;;;4.07;;
12425;SDS011;6277;49.824;9.562;2023-06-10T02:53:35;4.13;;;3.80;;
12425;SDS011;6277;49.824;9.562;2023-06-10T02:56:00;5.07;;;4.30;;
12425;SDS011;6277;49.824;9.562;2023-06-10T02:58:26;5.13;;;4.30;;
12425;SDS011;6277;49.824;9.562;2023-06-10T03:00:52;4.25;;;3.85;;
12425;SDS011;6277;49.824;9.562;2023-06-10T03:03:18;4.35;;;3.95;;
12425;SDS011;6277;49.824;9.562;2023-06-10T03:05:43;4.20;;;3.90;;
12425;SDS011;6277;49.824;9.562;2023-06-10T03:08:09;7.47;;;5.03;;
12425;SDS011;6277;49.824;9.562;2023-06-10T03:10:34;5.20;;;4.70;;
12425;SDS011;6277;49.824;9.562;2023-06-10T03:13:00;4.82;;;4.43;;
12425;SDS011;6277;49.824;9.562;2023-06-10T03:15:26;5.25;;;4.68;;
12425;SDS011;6277;49.824;9.562;2023-06-10T03:17:53;4.88;;;4.47;;
12425;SDS011;6277;49.824;9.562;2023-06-10T03:20:19;5.88;;;4.65;;
12425;SDS011;6277;49.824;9.562;2023-06-10T03:22:46;5.78;;;4.68;;
12425;SDS011;6277;49.824;9.562;2023-06-10T03:25:12;5.15;;;4.65;;
12425;SDS011;6277;49.824;9.562;2023-06-10T03:27:39;4.80;;;4.07;;
12425;SDS011;6277;49.824;9.562;2023-06-10T03:30:05;4.60;;;4.20;;
12425;SDS011;6277;49.824;9.562;2023-06-10T03:32:31;4.45;;;4.05;;
12425;SDS011;6277;49.824;9.562;2023-06-10T03:34:57;4.97;;;4.13;;
12425;SDS011;6277;49.824;9.562;2023-06-10T03:37:23;5.90;;;4.47;;
12425;SDS011;6277;49.824;9.562;2023-06-10T03:39:49;4.75;;;4.32;;
12425;SDS011;6277;49.824;9.562;2023-06-10T03:42:15;4.75;;;4.13;;
12425;SDS011;6277;49.824;9.562;2023-06-10T03:44:40;4.65;;;4.10;;
12425;SDS011;6277;49.824;9.562;2023-06-10T03:47:06;5.65;;;4.90;;
12425;SDS011;6277;49.824;9.562;2023-06-10T03:49:32;4.07;;;3.55;;
12425;SDS011;6277;49.824;9.562;2023-06-10T03:51:58;4.28;;;3.88;;
12425;SDS011;6277;49.824;9.562;2023-06-10T03:54:24;4.75;;;4.03;;
12425;SDS011;6277;49.824;9.562;2023-06-10T03:56:50;4.97;;;4.03;;
12425;SDS011;6277;49.824;9.562;2023-06-10T03:59:15;5.15;;;4.03;;
12425;SDS011;6277;49.824;9.562;2023-06-10T04:01:41;4.40;;;3.95;;
12425;SDS011;6277;49.824;9.562;2023-06-10T04:04:08;5.35;;;4.20;;
12425;SDS011;6277;49.824;9.562;2023-06-10T04:06:34;6.25;;;4.55;;
12425;SDS011;6277;49.824;9.562;2023-06-10T04:09:00;5.20;;;4.35;;
12425;SDS011;6277;49.824;9.562;2023-06-10T04:11:25;4.28;;;3.85;;
12425;SDS011;6277;49.824;9.562;2023-06-10T04:13:51;4.70;;;4.03;;
12425;SDS011;6277;49.824;9.562;2023-06-10T04:16:16;4.97;;;4.45;;
12425;SDS011;6277;49.824;9.562;2023-06-10T04:18:42;4.47;;;4.07;;
12425;SDS011;6277;49.824;9.562;2023-06-10T04:21:08;4.78;;;4.38;;
12425;SDS011;6277;49.824;9.562;2023-06-10T04:23:34;5.53;;;4.57;;
12425;SDS011;6277;49.824;9.562;2023-06-10T04:26:00;5.10;;;4.28;;
12425;SDS011;6277;49.824;9.562;2023-06-10T04:28:25;5.25;;;4.75;;
12425;SDS011;6277;49.824;9.562;2023-06-10T04:30:51;4.70;;;4.30;;
12425;SDS011;6277;49.824;9.562;2023-06-10T04:33:17;4.97;;;4.18;;
12425;SDS011;6277;49.824;9.562;2023-06-10T04:35:43;4.82;;;4.40;;
12425;SDS011;6277;49.824;9.562;2023-06-10T04:38:09;4.82;;;4.35;;
12425;SDS011;6277;49.824;9.562;2023-06-10T04:40:35;4.70;;;4.30;;
12425;SDS011;6277;49.824;9.562;2023-06-10T04:43:00;3.92;;;3.63;;
12425;SDS011;6277;49.824;9.562;2023-06-10T04:45:26;5.38;;;4.47;;
12425;SDS011;6277;49.824;9.562;2023-06-10T04:47:51;4.60;;;4.07;;
12425;SDS011;6277;49.824;9.562;2023-06-10T04:50:17;5.07;;;4.57;;
12425;SDS011;6277;49.824;9.562;2023-06-10T04:52:42;4.78;;;4.38;;
12425;SDS011;6277;49.824;9.562;2023-06-10T04:55:09;5.05;;;4.55;;
12425;SDS011;6277;49.824;9.562;2023-06-10T04:57:35;4.43;;;4.03;;
12425;SDS011;6277;49.824;9.562;2023-06-10T05:00:00;5.63;;;5.00;;
12425;SDS011;6277;49.824;9.562;2023-06-10T05:02:26;5.68;;;4.75;;
12425;SDS011;6277;49.824;9.562;2023-06-10T05:04:51;5.13;;;4.40;;
12425;SDS011;6277;49.824;9.562;2023-06-10T05:07:18;5.28;;;4.57;;
12425;SDS011;6277;49.824;9.562;2023-06-10T05:09:43;4.38;;;3.97;;
12425;SDS011;6277;49.824;9.562;2023-06-10T05:12:10;5.43;;;4.15;;
12425;SDS011;6277;49.824;9.562;2023-06-10T05:14:35;3.85;;;3.30;;
12425;SDS011;6277;49.824;9.562;2023-06-10T05:17:01;4.25;;;3.85;;
12425;SDS011;6277;49.824;9.562;2023-06-10T05:19:26;4.95;;;3.88;;
12425;SDS011;6277;49.824;9.562;2023-06-10T05:21:52;4.78;;;3.88;;
12425;SDS011;6277;49.824;9.562;2023-06-10T05:24:17;4.10;;;3.70;;
12425;SDS011;6277;49.824;9.562;2023-06-10T05:26:43;6.05;;;3.92;;
12425;SDS011;6277;49.824;9.562;2023-06-10T05:29:09;4.32;;;3.85;;
12425;SDS011;6277;49.824;9.562;2023-06-10T05:31:35;5.00;;;3.88;;
12425;SDS011;6277;49.824;9.562;2023-06-10T05:34:01;4.53;;;4.13;;
12425;SDS011;6277;49.824;9.562;2023-06-10T05:36:26;4.22;;;3.83;;
12425;SDS011;6277;49.824;9.562;2023-06-10T05:38:52;4.20;;;3.80;;
12425;SDS011;6277;49.824;9.562;2023-06-10T05:41:18;4.80;;;3.63;;
12425;SDS011;6277;49.824;9.562;2023-06-10T05:43:43;4.35;;;3.92;;
12425;SDS011;6277;49.824;9.562;2023-06-10T05:46:09;4.03;;;3.72;;
12425;SDS011;6277;49.824;9.562;2023-06-10T05:48:34;4.68;;;3.95;;
12425;SDS011;6277;49.824;9.562;2023-06-10T05:51:00;4.13;;;3.72;;
12425;SDS011;6277;49.824;9.562;2023-06-10T05:53:26;4.00;;;3.28;;
12425;SDS011;6277;49.824;9.562;2023-06-10T05:55:51;3.90;;;3.47;;
12425;SDS011;6277;49.824;9.562;2023-06-10T05:58:18;4.82;;;3.80;;
12425;SDS011;6277;49.824;9.562;2023-06-10T06:00:45;4.07;;;3.67;;
12425;SDS011;6277;49.824;9.562;2023-06-10T06:03:10;4.00;;;3.63;;
12425;SDS011;6277;49.824;9.562;2023-06-10T06:05:36;4.75;;;3.63;;
12425;SDS011;6277;49.824;9.562;2023-06-10T06:08:03;4.05;;;3.65;;
12425;SDS011;6277;49.824;9.562;2023-06-10T06:10:30;4.00;;;3.60;;
12425;SDS011;6277;49.824;9.562;2023-06-10T06:12:55;4.35;;;3.85;;
12425;SDS011;6277;49.824;9.562;2023-06-10T06:15:21;4.60;;;4.10;;
12425;SDS011;6277;49.824;9.562;2023-06-10T06:17:47;3.80;;;3.50;;
12425;SDS011;6277;49.824;9.562;2023-06-10T06:20:12;5.95;;;3.83;;
12425;SDS011;6277;49.824;9.562;2023-06-10T06:22:38;4.57;;;3.90;;
12425;SDS011;6277;49.824;9.562;2023-06-10T06:25:04;4.32;;;3.70;;
12425;SDS011;6277;49.824;9.562;2023-06-10T06:27:30;3.80;;;3.50;;
12425;SDS011;6277;49.824;9.562;2023-06-10T06:29:56;5.13;;;4.18;;
12425;SDS011;6277;49.824;9.562;2023-06-10T06:32:21;5.07;;;4.28;;
12425;SDS011;6277;49.824;9.562;2023-06-10T06:34:47;5.03;;;4.22;;
12425;SDS011;6277;49.824;9.562;2023-06-10T06:37:18;4.43;;;4.03;;
12425;SDS011;6277;49.824;9.562;2023-06-10T06:39:46;4.40;;;3.97;;
12425;SDS011;6277;49.824;9.562;2023-06-10T06:42:11;4.72;;;4.20;;
12425;SDS011;6277;49.824;9.562;2023-06-10T06:44:37;4.53;;;3.75;;
12425;SDS011;6277;49.824;9.562;2023-06-10T06:47:02;4.15;;;3.72;;
12425;SDS011;6277;49.824;9.562;2023-06-10T06:49:28;5.03;;;4.05;;
12425;SDS011;6277;49.824;9.562;2023-06-10T06:51:53;5.55;;;4.30;;
12425;SDS011;6277;49.824;9.562;2023-06-10T06:54:19;4.68;;;4.18;;
12425;SDS011;6277;49.824;9.562;2023-06-10T06:56:45;4.38;;;3.97;;
12425;SDS011;6277;49.824;9.562;2023-06-10T06:59:10;5.22;;;3.95;;
12425;SDS011;6277;49.824;9.562;2023-06-10T07:01:38;4.35;;;3.90;;
12425;SDS011;6277;49.824;9.562;2023-06-10T07:04:04;4.70;;;4.30;;
12425;SDS011;6277;49.824;9.562;2023-06-10T07:06:30;5.07;;;4.30;;
12425;SDS011;6277;49.824;9.562;2023-06-10T07:08:55;4.30;;;3.80;;
12425;SDS011;6277;49.824;9.562;2023-06-10T07:11:21;4.47;;;4.00;;
12425;SDS011;6277;49.824;9.562;2023-06-10T07:13:47;5.43;;;4.72;;
12425;SDS011;6277;49.824;9.562;2023-06-10T07:16:12;4.28;;;3.88;;
12425;SDS011;6277;49.824;9.562;2023-06-10T07:18:38;5.18;;;4.15;;
12425;SDS011;6277;49.824;9.562;2023-06-10T07:21:03;4.50;;;3.95;;
12425;SDS011;6277;49.824;9.562;2023-06-10T07:23:29;6.10;;;4.38;;
12425;SDS011;6277;49.824;9.562;2023-06-10T07:25:55;4.38;;;3.97;;
12425;SDS011;6277;49.824;9.562;2023-06-10T07:28:20;4.68;;;4.28;;
12425;SDS011;6277;49.824;9.562;2023-06-10T07:30:46;4.53;;;4.13;;
12425;SDS011;6277;49.824;9.562;2023-06-10T07:33:11;4.40;;;4.00;;
12425;SDS011;6277;49.824;9.562;2023-06-10T07:35:37;4.95;;;4.30;;
12425;SDS011;6277;49.824;9.562;2023-06-10T07:38:02;5.93;;;4.60;;
12425;SDS011;6277;49.824;9.562;2023-06-10T07:40:28;4.45;;;4.05;;
12425;SDS011;6277;49.824;9.562;2023-06-10T07:42:54;5.20;;;4.70;;
12425;SDS011;6277;49.824;9.562;2023-06-10T07:45:20;4.35;;;3.95;;
12425;SDS011;6277;49.824;9.562;2023-06-10T07:47:46;6.63;;;5.80;;
12425;SDS011;6277;49.824;9.562;2023-06-10T07:50:11;7.03;;;5.95;;
12425;SDS011;6277;49.824;9.562;2023-06-10T07:52:37;5.57;;;5.00;;
12425;SDS011;6277;49.824;9.562;2023-06-10T07:55:03;5.13;;;4.30;;
12425;SDS011;6277;49.824;9.562;2023-06-10T07:57:29;7.90;;;5.75;;
12425;SDS011;6277;49.824;9.562;2023-06-10T07:59:59;7.15;;;5.25;;
12425;SDS011;6277;49.824;9.562;2023-06-10T08:02:26;5.22;;;4.63;;
12425;SDS011;6277;49.824;9.562;2023-06-10T08:04:52;4.97;;;4.40;;
12425;SDS011;6277;49.824;9.562;2023-06-10T08:07:17;4.28;;;3.88;;
12425;SDS011;6277;49.824;9.562;2023-06-10T08:09:44;4.32;;;3.92;;
12425;SDS011;6277;49.824;9.562;2023-06-10T08:12:09;5.90;;;3.90;;
12425;SDS011;6277;49.824;9.562;2023-06-10T08:14:35;4.20;;;3.80;;
12425;SDS011;6277;49.824;9.562;2023-06-10T08:17:01;4.25;;;3.85;;
12425;SDS011;6277;49.824;9.562;2023-06-10T08:19:30;4.00;;;3.50;;
12425;SDS011;6277;49.824;9.562;2023-06-10T08:21:55;4.25;;;3.85;;
12425;SDS011;6277;49.824;9.562;2023-06-10T08:24:21;5.03;;;4.10;;
12425;SDS011;6277;49.824;9.562;2023-06-10T08:26:47;5.22;;;3.78;;
12425;SDS011;6277;49.824;9.562;2023-06-10T08:29:12;4.53;;;3.80;;
12425;SDS011;6277;49.824;9.562;2023-06-10T08:31:42;4.20;;;3.80;;
12425;SDS011;6277;49.824;9.562;2023-06-10T08:34:08;3.85;;;3.45;;
12425;SDS011;6277;49.824;9.562;2023-06-10T08:36:34;3.75;;;3.45;;
12425;SDS011;6277;49.824;9.562;2023-06-10T08:39:00;4.30;;;3.88;;
12425;SDS011;6277;49.824;9.562;2023-06-10T08:41:26;3.42;;;3.13;;
12425;SDS011;6277;49.824;9.562;2023-06-10T08:46:52;3.58;;;3.22;;
12425;SDS011;6277;49.824;9.562;2023-06-10T08:49:20;10.18;;;3.45;;
12425;SDS011;6277;49.824;9.562;2023-06-10T08:51:51;3.35;;;3.05;;
12425;SDS011;6277;49.824;9.562;2023-06-10T08:54:24;4.47;;;3.53;;
12425;SDS011;6277;49.824;9.562;2023-06-10T08:56:54;3.88;;;3.17;;
12425;SDS011;6277;49.824;9.562;2023-06-10T08:59:22;2.97;;;2.75;;
12425;SDS011;6277;49.824;9.562;2023-06-10T09:01:48;3.45;;;3.08;;
12425;SDS011;6277;49.824;9.562;2023-06-10T09:04:15;4.22;;;3.30;;
12425;SDS011;6277;49.824;9.562;2023-06-10T09:06:42;3.15;;;2.88;;
12425;SDS011;6277;49.824;9.562;2023-06-10T09:09:09;3.30;;;3.00;;
12425;SDS011;6277;49.824;9.562;2023-06-10T09:11:37;3.20;;;2.90;;
12425;SDS011;6277;49.824;9.562;2023-06-10T09:14:03;3.35;;;3.05;;
12425;SDS011;6277;49.824;9.562;2023-06-10T09:16:28;3.13;;;2.72;;
12425;SDS011;6277;49.824;9.562;2023-06-10T09:18:54;3.05;;;2.63;;
12425;SDS011;6277;49.824;9.562;2023-06-10T09:21:23;3.10;;;2.80;;
12425;SDS011;6277;49.824;9.562;2023-06-10T09:23:49;3.13;;;2.60;;
12425;SDS011;6277;49.824;9.562;2023-06-10T09:26:15;3.10;;;2.90;;
12425;SDS011;6277;49.824;9.562;2023-06-10T09:28:42;3.45;;;2.65;;
12425;SDS011;6277;49.824;9.562;2023-06-10T09:31:09;5.20;;;3.10;;
12425;SDS011;6277;49.824;9.562;2023-06-10T09:33:38;3.65;;;2.22;;
12425;SDS011;6277;49.824;9.562;2023-06-10T09:36:05;2.70;;;2.50;;
12425;SDS011;6277;49.824;9.562;2023-06-10T09:38:31;2.75;;;2.55;;
12425;SDS011;6277;49.824;9.562;2023-06-10T09:40:58;3.42;;;2.70;;
12425;SDS011;6277;49.824;9.562;2023-06-10T09:43:39;3.70;;;2.63;;
12425;SDS011;6277;49.824;9.562;2023-06-10T09:46:05;2.92;;;2.60;;
12425;SDS011;6277;49.824;9.562;2023-06-10T09:48:34;2.80;;;2.50;;
12425;SDS011;6277;49.824;9.562;2023-06-10T09:51:08;2.70;;;2.50;;
12425;SDS011;6277;49.824;9.562;2023-06-10T09:53:34;2.67;;;2.20;;
12425;SDS011;6277;49.824;9.562;2023-06-10T09:56:00;3.03;;;2.53;;
12425;SDS011;6277;49.824;9.562;2023-06-10T09:58:35;4.45;;;2.30;;
12425;SDS011;6277;49.824;9.562;2023-06-10T10:01:10;2.75;;;2.50;;
12425;SDS011;6277;49.824;9.562;2023-06-10T10:03:44;2.70;;;2.25;;
12425;SDS011;6277;49.824;9.562;2023-06-10T10:06:15;3.10;;;2.38;;
12425;SDS011;6277;49.824;9.562;2023-06-10T10:08:42;2.40;;;2.17;;
12425;SDS011;6277;49.824;9.562;2023-06-10T10:11:08;2.60;;;2.40;;
12425;SDS011;6277;49.824;9.562;2023-06-10T10:13:34;3.15;;;2.55;;
12425;SDS011;6277;49.824;9.562;2023-06-10T10:16:04;5.30;;;2.28;;
12425;SDS011;6277;49.824;9.562;2023-06-10T10:18:36;2.58;;;2.38;;
12425;SDS011;6277;49.824;9.562;2023-06-10T10:21:12;2.60;;;2.40;;
12425;SDS011;6277;49.824;9.562;2023-06-10T10:23:40;3.15;;;2.40;;
12425;SDS011;6277;49.824;9.562;2023-06-10T10:26:16;2.92;;;2.60;;
12425;SDS011;6277;49.824;9.562;2023-06-10T10:31:44;2.70;;;2.20;;
12425;SDS011;6277;49.824;9.562;2023-06-10T10:34:13;2.95;;;2.40;;
12425;SDS011;6277;49.824;9.562;2023-06-10T10:36:44;3.05;;;2.33;;
12425;SDS011;6277;49.824;9.562;2023-06-10T10:39:11;2.40;;;2.20;;
12425;SDS011;6277;49.824;9.562;2023-06-10T10:41:37;2.50;;;2.22;;
12425;SDS011;6277;49.824;9.562;2023-06-10T10:44:03;2.28;;;2.08;;
12425;SDS011;6277;49.824;9.562;2023-06-10T10:46:41;2.42;;;2.20;;
12425;SDS011;6277;49.824;9.562;2023-06-10T10:49:14;2.72;;;2.45;;
12425;SDS011;6277;49.824;9.562;2023-06-10T10:52:02;2.42;;;2.03;;
12425;SDS011;6277;49.824;9.562;2023-06-10T10:54:34;2.50;;;1.77;;
12425;SDS011;6277;49.824;9.562;2023-06-10T10:59:58;2.10;;;1.90;;
12425;SDS011;6277;49.824;9.562;2023-06-10T11:04:59;2.30;;;2.10;;
12425;SDS011;6277;49.824;9.562;2023-06-10T11:07:25;2.08;;;1.88;;
12425;SDS011;6277;49.824;9.562;2023-06-10T11:10:02;2.22;;;2.00;;
12425;SDS011;6277;49.824;9.562;2023-06-10T11:12:42;2.67;;;2.00;;
12425;SDS011;6277;49.824;9.562;2023-06-10T11:15:11;2.75;;;2.28;;
12425;SDS011;6277;49.824;9.562;2023-06-10T11:18:13;2.60;;;2.13;;
12425;SDS011;6277;49.824;9.562;2023-06-10T11:20:43;2.15;;;1.95;;
12425;SDS011;6277;49.824;9.562;2023-06-10T11:23:08;2.65;;;1.92;;
12425;SDS011;6277;49.824;9.562;2023-06-10T11:25:40;2.13;;;1.92;;
12425;SDS011;6277;49.824;9.562;2023-06-10T11:28:17;2.10;;;1.70;;
12425;SDS011;6277;49.824;9.562;2023-06-10T11:30:44;2.05;;;1.80;;
12425;SDS011;6277;49.824;9.562;2023-06-10T11:33:13;1.98;;;1.73;;
12425;SDS011;6277;49.824;9.562;2023-06-10T11:35:42;1.90;;;1.80;;
12425;SDS011;6277;49.824;9.562;2023-06-10T11:38:08;2.45;;;1.85;;
12425;SDS011;6277;49.824;9.562;2023-06-10T11:40:36;2.20;;;2.00;;
12425;SDS011;6277;49.824;9.562;2023-06-10T11:43:03;2.53;;;1.98;;
12425;SDS011;6277;49.824;9.562;2023-06-10T11:45:29;2.20;;;2.00;;
12425;SDS011;6277;49.824;9.562;2023-06-10T11:47:58;2.63;;;2.10;;
12425;SDS011;6277;49.824;9.562;2023-06-10T11:50:33;1.83;;;1.73;;
12425;SDS011;6277;49.824;9.562;2023-06-10T11:52:59;4.40;;;2.15;;
12425;SDS011;6277;49.824;9.562;2023-06-10T11:55:41;2.10;;;1.90;;
12425;SDS011;6277;49.824;9.562;2023-06-10T11:58:20;2.47;;;1.67;;
12425;SDS011;6277;49.824;9.562;2023-06-10T12:00:51;3.78;;;2.08;;
12425;SDS011;6277;49.824;9.562;2023-06-10T12:03:26;2.58;;;2.00;;
12425;SDS011;6277;49.824;9.562;2023-06-10T12:06:01;2.63;;;1.75;;
12425;SDS011;6277;49.824;9.562;2023-06-10T12:08:28;2.22;;;2.03;;
12425;SDS011;6277;49.824;9.562;2023-06-10T12:10:54;2.25;;;1.75;;
12425;SDS011;6277;49.824;9.562;2023-06-10T12:13:21;3.05;;;1.90;;
12425;SDS011;6277;49.824;9.562;2023-06-10T12:15:48;1.65;;;1.55;;
12425;SDS011;6277;49.824;9.562;2023-06-10T12:18:23;1.50;;;1.40;;
12425;SDS011;6277;49.824;9.562;2023-06-10T12:20:49;1.98;;;1.77;;
12425;SDS011;6277;49.824;9.562;2023-06-10T12:23:16;2.08;;;1.80;;
12425;SDS011;6277;49.824;9.562;2023-06-10T12:25:52;1.95;;;1.70;;
12425;SDS011;6277;49.824;9.562;2023-06-10T12:28:22;3.90;;;1.95;;
12425;SDS011;6277;49.824;9.562;2023-06-10T12:30:48;1.75;;;1.65;;
12425;SDS011;6277;49.824;9.562;2023-06-10T12:33:20;1.95;;;1.70;;
12425;SDS011;6277;49.824;9.562;2023-06-10T12:35:50;2.13;;;1.92;;
12425;SDS011;6277;49.824;9.562;2023-06-10T12:38:23;3.97;;;1.65;;
12425;SDS011;6277;49.824;9.562;2023-06-10T12:40:49;1.88;;;1.40;;
12425;SDS011;6277;49.824;9.562;2023-06-10T12:43:24;1.90;;;1.80;;
12425;SDS011;6277;49.824;9.562;2023-06-10T12:45:50;1.73;;;1.52;;
12425;SDS011;6277;49.824;9.562;2023-06-10T12:48:25;2.55;;;1.67;;
12425;SDS011;6277;49.824;9.562;2023-06-10T12:50:51;2.13;;;1.73;;
12425;SDS011;6277;49.824;9.562;2023-06-10T12:53:21;2.10;;;1.67;;
12425;SDS011;6277;49.824;9.562;2023-06-10T12:55:48;1.90;;;1.58;;
12425;SDS011;6277;49.824;9.562;2023-06-10T12:58:14;2.00;;;1.80;;
12425;SDS011;6277;49.824;9.562;2023-06-10T13:00:39;1.90;;;1.70;;
12425;SDS011;6277;49.824;9.562;2023-06-10T13:03:07;2.00;;;1.90;;
12425;SDS011;6277;49.824;9.562;2023-06-10T13:05:34;2.92;;;2.00;;
12425;SDS011;6277;49.824;9.562;2023-06-10T13:08:02;2.05;;;1.88;;
12425;SDS011;6277;49.824;9.562;2023-06-10T13:10:28;2.10;;;1.85;;
12425;SDS011;6277;49.824;9.562;2023-06-10T13:12:53;1.98;;;1.42;;
12425;SDS011;6277;49.824;9.562;2023-06-10T13:15:19;1.80;;;1.70;;
12425;SDS011;6277;49.824;9.562;2023-06-10T13:17:45;2.35;;;1.70;;
12425;SDS011;6277;49.824;9.562;2023-06-10T13:20:15;2.33;;;1.98;;
12425;SDS011;6277;49.824;9.562;2023-06-10T13:22:41;1.73;;;1.58;;
12425;SDS011;6277;49.824;9.562;2023-06-10T13:25:07;2.00;;;1.77;;
12425;SDS011;6277;49.824;9.562;2023-06-10T13:27:34;2.28;;;2.00;;
12425;SDS011;6277;49.824;9.562;2023-06-10T13:30:00;3.28;;;1.95;;
12425;SDS011;6277;49.824;9.562;2023-06-10T13:32:25;1.70;;;1.60;;
12425;SDS011;6277;49.824;9.562;2023-06-10T13:34:51;2.65;;;1.70;;
12425;SDS011;6277;49.824;9.562;2023-06-10T13:37:18;2.25;;;1.90;;
12425;SDS011;6277;49.824;9.562;2023-06-10T13:39:44;1.58;;;1.45;;
12425;SDS011;6277;49.824;9.562;2023-06-10T13:42:13;1.75;;;1.65;;
12425;SDS011;6277;49.824;9.562;2023-06-10T13:44:39;1.90;;;1.60;;
12425;SDS011;6277;49.824;9.562;2023-06-10T13:47:04;1.50;;;1.40;;
12425;SDS011;6277;49.824;9.562;2023-06-10T13:49:31;1.73;;;1.63;;
12425;SDS011;6277;49.824;9.562;2023-06-10T13:51:57;1.63;;;1.48;;
12425;SDS011;6277;49.824;9.562;2023-06-10T13:54:22;1.83;;;1.70;;
12425;SDS011;6277;49.824;9.562;2023-06-10T13:56:48;1.63;;;1.38;;
12425;SDS011;6277;49.824;9.562;2023-06-10T13:59:13;2.25;;;1.80;;
12425;SDS011;6277;49.824;9.562;2023-06-10T14:01:39;1.73;;;1.63;;
12425;SDS011;6277;49.824;9.562;2023-06-10T14:04:05;2.38;;;1.58;;
12425;SDS011;6277;49.824;9.562;2023-06-10T14:06:31;1.58;;;1.48;;
12425;SDS011;6277;49.824;9.562;2023-06-10T14:08:58;2.00;;;1.80;;
12425;SDS011;6277;49.824;9.562;2023-06-10T14:11:24;1.58;;;1.48;;
12425;SDS011;6277;49.824;9.562;2023-06-10T14:13:50;2.03;;;1.58;;
12425;SDS011;6277;49.824;9.562;2023-06-10T14:16:15;1.63;;;1.33;;
12425;SDS011;6277;49.824;9.562;2023-06-10T14:18:41;1.73;;;1.63;;
12425;SDS011;6277;49.824;9.562;2023-06-10T14:21:06;1.58;;;1.48;;
12425;SDS011;6277;49.824;9.562;2023-06-10T14:23:32;1.50;;;1.30;;
12425;SDS011;6277;49.824;9.562;2023-06-10T14:25:57;1.42;;;1.33;;
12425;SDS011;6277;49.824;9.562;2023-06-10T14:28:23;1.70;;;1.50;;
12425;SDS011;6277;49.824;9.562;2023-06-10T14:30:50;2.03;;;1.60;;
12425;SDS011;6277;49.824;9.562;2023-06-10T14:33:17;3.13;;;1.65;;
12425;SDS011;6277;49.824;9.562;2023-06-10T14:35:43;1.60;;;1.50;;
12425;SDS011;6277;49.824;9.562;2023-06-10T14:38:08;1.65;;;1.55;;
12425;SDS011;6277;49.824;9.562;2023-06-10T14:40:34;1.45;;;1.35;;
12425;SDS011;6277;49.824;9.562;2023-06-10T14:43:00;1.35;;;1.20;;
12425;SDS011;6277;49.824;9.562;2023-06-10T14:45:28;1.58;;;1.48;;
12425;SDS011;6277;49.824;9.562;2023-06-10T14:47:54;1.85;;;1.70;;
12425;SDS011;6277;49.824;9.562;2023-06-10T14:50:20;1.55;;;1.45;;
12425;SDS011;6277;49.824;9.562;2023-06-10T14:52:45;2.10;;;1.58;;
12425;SDS011;6277;49.824;9.562;2023-06-10T14:55:11;1.60;;;1.40;;
12425;SDS011;6277;49.824;9.562;2023-06-10T14:57:37;2.30;;;1.52;;
12425;SDS011;6277;49.824;9.562;2023-06-10T15:00:02;2.40;;;1.30;;
12425;SDS011;6277;49.824;9.562;2023-06-10T15:02:28;2.35;;;1.40;;
12425;SDS011;6277;49.824;9.562;2023-06-10T15:04:54;1.55;;;1.45;;
12425;SDS011;6277;49.824;9.562;2023-06-10T15:07:19;2.33;;;1.42;;
12425;SDS011;6277;49.824;9.562;2023-06-10T15:09:45;1.60;;;1.50;;
12425;SDS011;6277;49.824;9.562;2023-06-10T15:12:10;1.92;;;1.55;;